LDRI/RJK METAR and TAF weather

Enter ICAO airport designator
Station Type Date Time Source
LDRI METAR 2022/05/24 11:00 UTC NOAA

LDRI 241100Z 19010KT 150V260 9999 FEW040 28/14 Q1008


Station Type Date Time Source
LDRI Decoded METAR 2022/05/24 11:00 UTC NOAA

Rijeka / Omisalj, Croatia (LDRI) 45-13N 014-35E
May 24, 2022 - 07:00 AM EDT / 2022.05.24 1100 UTC
Wind: from the S (190 degrees) at 12 MPH (10 KT) (direction variable):0
Visibility: greater than 7 mile(s):0
Sky conditions: mostly clear
Temperature: 82 F (28 C)
Dew Point: 57 F (14 C)
Relative Humidity: 42%
Pressure (altimeter): 29.77 in. Hg (1008 hPa)
ob: LDRI 241100Z 19010KT 150V260 9999 FEW040 28/14 Q1008
cycle: 11

Station Type Date Time Source
LDRI TAF 2022/05/24 06:28 UTC NOAA

TAF LDRI 240525Z 2406/2506 12005KT 9999 SCT045 TX26/2412Z TN18/2504Z PROB40
TEMPO 2409/2417 16010KT PROB30
TEMPO 2421/2502 -TSRA FEW045CB

Example: see airport list